Time;durP1;ratioP1;P1;durP2;ratioP2;P2;SDS_P1;SDS_P2;PMS_P1;PMS_P2;Temp;Humidity;BMP_temperature;BMP_pressure;BME280_temperature;BME280_humidity;BME280_pressure;Samples;Min_cycle;Max_cycle;Signal;HPM_P1;HPM_P2
2022/11/08 00:01:46;;;;;;;80.18;51.30;;;;;;;;;;5036442;28;20045;-87
2022/11/08 00:04:13;;;;;;;74.32;52.42;;;;;;;;;;5035200;28;20069;-87
2022/11/08 00:14:55;;;;;;;67.75;46.10;;;;;;;;;;5030945;28;20080;-87
2022/11/08 00:17:21;;;;;;;69.32;46.97;;;;;;;;;;5034973;28;20072;-87
2022/11/08 00:20:05;;;;;;;76.05;51.90;;;;;;;;;;5031196;28;20471;-86
2022/11/08 00:22:31;;;;;;;77.25;52.05;;;;;;;;;;5034505;28;20029;-84
2022/11/08 00:24:58;;;;;;;73.80;49.60;;;;;;;;;;5034444;28;20089;-84
2022/11/08 00:27:24;;;;;;;75.85;51.13;;;;;;;;;;5034809;28;20033;-84
2022/11/08 00:29:51;;;;;;;69.13;47.70;;;;;;;;;;5034288;28;20061;-84
2022/11/08 00:32:18;;;;;;;73.57;52.03;;;;;;;;;;5034864;28;20022;-84
2022/11/08 00:34:44;;;;;;;80.15;56.00;;;;;;;;;;5034506;28;20439;-83
2022/11/08 00:37:10;;;;;;;87.03;57.45;;;;;;;;;;5034275;28;20025;-83
2022/11/08 00:39:36;;;;;;;74.13;51.85;;;;;;;;;;5034348;28;20029;-84
2022/11/08 00:42:03;;;;;;;65.03;46.20;;;;;;;;;;5034465;28;20486;-83
2022/11/08 00:44:29;;;;;;;68.22;47.85;;;;;;;;;;5034329;28;20124;-83
2022/11/08 00:46:55;;;;;;;70.85;50.10;;;;;;;;;;5034531;28;20033;-84
2022/11/08 00:49:21;;;;;;;60.92;44.88;;;;;;;;;;5034239;28;20021;-83
2022/11/08 00:51:47;;;;;;;56.53;41.65;;;;;;;;;;5034010;28;20018;-84
2022/11/08 00:54:14;;;;;;;60.95;40.88;;;;;;;;;;5034210;28;20021;-84
2022/11/08 00:56:41;;;;;;;58.33;41.10;;;;;;;;;;5033765;28;20083;-83
2022/11/08 00:59:07;;;;;;;59.38;41.13;;;;;;;;;;5034059;28;20095;-83
2022/11/08 01:01:33;;;;;;;65.45;41.33;;;;;;;;;;5034034;28;20049;-83
2022/11/08 01:03:59;;;;;;;61.53;43.33;;;;;;;;;;5033431;28;20026;-83
2022/11/08 01:06:25;;;;;;;58.92;40.63;;;;;;;;;;5033533;28;20054;-85
2022/11/08 01:08:52;;;;;;;55.90;39.15;;;;;;;;;;5033978;28;20049;-84
2022/11/08 01:11:20;;;;;;;56.08;37.47;;;;;;;;;;5034524;28;20462;-84
2022/11/08 01:13:46;;;;;;;51.75;35.08;;;;;;;;;;5033681;28;20425;-84
2022/11/08 01:16:20;;;;;;;52.85;35.45;;;;;;;;;;5033701;28;20124;-84
2022/11/08 01:18:46;;;;;;;46.83;32.03;;;;;;;;;;5033325;28;20026;-84
2022/11/08 01:21:13;;;;;;;43.83;30.17;;;;;;;;;;5033471;28;20057;-84
2022/11/08 01:23:40;;;;;;;43.63;30.60;;;;;;;;;;5034622;28;20026;-83
2022/11/08 01:26:07;;;;;;;51.17;32.47;;;;;;;;;;5032004;28;20027;-84
2022/11/08 01:28:34;;;;;;;39.78;27.77;;;;;;;;;;5033400;28;20547;-84
2022/11/08 01:31:04;;;;;;;45.08;29.77;;;;;;;;;;5033215;28;20017;-82
2022/11/08 01:33:30;;;;;;;35.85;24.52;;;;;;;;;;5034225;28;20023;-82
2022/11/08 01:35:57;;;;;;;39.80;26.05;;;;;;;;;;5033250;28;20025;-83
2022/11/08 01:38:23;;;;;;;37.80;26.77;;;;;;;;;;5033250;28;20064;-82
2022/11/08 01:40:49;;;;;;;37.95;25.85;;;;;;;;;;5032977;28;20383;-82
2022/11/08 01:43:27;;;;;;;36.30;24.35;;;;;;;;;;5033397;28;20017;-83
2022/11/08 01:46:05;;;;;;;40.83;27.33;;;;;;;;;;5033059;28;20084;-84
2022/11/08 01:48:31;;;;;;;42.83;29.05;;;;;;;;;;5033295;28;20493;-83
2022/11/08 01:50:59;;;;;;;36.55;27.02;;;;;;;;;;5033069;28;20032;-83
2022/11/08 01:53:25;;;;;;;40.30;27.77;;;;;;;;;;5032710;28;20026;-83
2022/11/08 01:55:51;;;;;;;40.42;27.67;;;;;;;;;;5034270;28;20029;-83
2022/11/08 01:58:20;;;;;;;39.70;27.63;;;;;;;;;;5033104;28;20482;-83
2022/11/08 02:00:46;;;;;;;37.20;27.33;;;;;;;;;;5032585;28;20021;-83
2022/11/08 02:03:13;;;;;;;38.75;26.88;;;;;;;;;;5032764;28;20029;-82
2022/11/08 02:05:40;;;;;;;37.88;26.45;;;;;;;;;;5032623;28;20381;-83
2022/11/08 02:08:28;;;;;;;38.70;25.58;;;;;;;;;;5032717;28;20021;-83
2022/11/08 02:10:54;;;;;;;32.88;23.75;;;;;;;;;;5032934;28;20032;-83
2022/11/08 02:13:22;;;;;;;36.20;23.17;;;;;;;;;;5032878;28;20025;-83
2022/11/08 02:15:49;;;;;;;30.88;22.65;;;;;;;;;;5032262;28;20056;-83
2022/11/08 02:18:15;;;;;;;35.67;23.52;;;;;;;;;;5032804;28;20057;-83
2022/11/08 02:21:03;;;;;;;32.50;21.73;;;;;;;;;;5032507;28;20244;-83
2022/11/08 02:23:37;;;;;;;33.40;22.38;;;;;;;;;;5033110;28;20026;-84
2022/11/08 02:26:03;;;;;;;34.75;21.95;;;;;;;;;;5032839;28;20120;-84
2022/11/08 02:28:29;;;;;;;34.10;23.40;;;;;;;;;;5032547;28;20096;-83
2022/11/08 02:30:55;;;;;;;36.17;24.15;;;;;;;;;;5032652;28;20414;-83
2022/11/08 02:33:22;;;;;;;37.45;26.90;;;;;;;;;;5032984;28;20032;-83
2022/11/08 02:35:53;;;;;;;41.22;29.23;;;;;;;;;;5031137;28;20022;-84
2022/11/08 02:38:19;;;;;;;39.63;27.77;;;;;;;;;;5035786;28;20057;-84
2022/11/08 02:40:50;;;;;;;42.00;29.15;;;;;;;;;;5047400;28;20026;-83
2022/11/08 02:43:16;;;;;;;46.90;31.85;;;;;;;;;;5046894;28;20021;-84
2022/11/08 02:45:42;;;;;;;54.13;35.60;;;;;;;;;;5023504;28;20025;-84
2022/11/08 02:48:08;;;;;;;48.97;31.73;;;;;;;;;;5016812;28;20455;-84
2022/11/08 02:50:34;;;;;;;51.55;33.50;;;;;;;;;;5015497;28;20486;-84
2022/11/08 02:53:01;;;;;;;51.05;35.38;;;;;;;;;;5016615;28;20065;-84
2022/11/08 02:55:28;;;;;;;59.20;38.47;;;;;;;;;;5016368;28;20467;-84
2022/11/08 02:57:54;;;;;;;61.85;39.90;;;;;;;;;;5016141;28;20034;-84
2022/11/08 03:00:20;;;;;;;66.13;44.35;;;;;;;;;;5016501;28;20100;-83
2022/11/08 03:02:50;;;;;;;65.30;44.53;;;;;;;;;;5016052;28;20026;-84
2022/11/08 03:05:19;;;;;;;64.60;42.13;;;;;;;;;;5015718;28;20054;-84
2022/11/08 03:07:45;;;;;;;68.88;43.83;;;;;;;;;;5016317;28;20025;-84
2022/11/08 03:10:12;;;;;;;66.60;42.92;;;;;;;;;;5015989;28;20142;-84
2022/11/08 03:12:38;;;;;;;63.03;42.13;;;;;;;;;;5016297;28;20513;-84
2022/11/08 03:15:05;;;;;;;60.50;38.10;;;;;;;;;;5016135;28;20026;-84
2022/11/08 03:17:31;;;;;;;64.07;40.13;;;;;;;;;;5015673;28;20076;-84
2022/11/08 03:19:57;;;;;;;66.65;40.65;;;;;;;;;;5016178;28;20057;-84
2022/11/08 03:22:24;;;;;;;53.40;34.00;;;;;;;;;;5017306;28;20026;-84
2022/11/08 03:24:50;;;;;;;59.08;35.50;;;;;;;;;;5015859;28;20048;-85
2022/11/08 03:27:18;;;;;;;61.55;39.28;;;;;;;;;;5016097;28;20495;-85
2022/11/08 03:29:44;;;;;;;56.03;36.28;;;;;;;;;;5016164;28;20029;-84
2022/11/08 03:32:11;;;;;;;61.67;37.70;;;;;;;;;;5015793;28;20113;-85
2022/11/08 03:34:37;;;;;;;66.22;40.97;;;;;;;;;;5015990;28;20018;-85
2022/11/08 03:37:04;;;;;;;62.90;38.13;;;;;;;;;;5015614;28;20021;-85
2022/11/08 03:39:31;;;;;;;57.30;33.92;;;;;;;;;;5015719;28;20029;-85
2022/11/08 03:42:07;;;;;;;;;;;;;;;;;;;;;
2022/11/08 03:44:39;;;;;;;57.25;34.00;;;;;;;;;;5016468;28;20026;-85
2022/11/08 03:47:10;;;;;;;53.03;32.92;;;;;;;;;;5015857;28;20064;-85
2022/11/08 03:49:39;;;;;;;55.92;30.73;;;;;;;;;;5014761;28;20026;-85
2022/11/08 03:52:05;;;;;;;53.38;32.08;;;;;;;;;;5016403;28;20475;-84
2022/11/08 03:54:31;;;;;;;45.17;29.90;;;;;;;;;;5015496;28;20026;-85
2022/11/08 03:56:57;;;;;;;49.45;29.27;;;;;;;;;;5015556;28;20026;-84
2022/11/08 03:59:23;;;;;;;49.88;30.30;;;;;;;;;;5015217;28;20041;-84
2022/11/08 04:01:49;;;;;;;47.92;30.05;;;;;;;;;;5014931;28;20083;-85
2022/11/08 04:04:15;;;;;;;57.30;32.40;;;;;;;;;;5015349;28;20022;-85
2022/11/08 04:06:41;;;;;;;51.63;32.65;;;;;;;;;;5015115;28;20089;-85
2022/11/08 04:09:07;;;;;;;48.40;30.15;;;;;;;;;;5035144;28;19998;-85
2022/11/08 04:17:03;;;;;;;48.78;28.38;;;;;;;;;;5016204;28;20036;-84
2022/11/08 04:22:13;;;;;;;43.60;28.20;;;;;;;;;;5016332;28;20037;-85
2022/11/08 04:24:39;;;;;;;44.72;27.63;;;;;;;;;;5015196;28;20028;-87
2022/11/08 04:27:06;;;;;;;50.45;30.38;;;;;;;;;;5014754;28;20542;-84
2022/11/08 04:29:32;;;;;;;51.45;28.98;;;;;;;;;;5014914;28;20053;-84
2022/11/08 04:31:58;;;;;;;45.65;27.92;;;;;;;;;;5014728;28;20022;-84
2022/11/08 04:34:24;;;;;;;45.50;27.55;;;;;;;;;;5014339;28;20022;-84
2022/11/08 04:36:50;;;;;;;50.65;28.70;;;;;;;;;;5014074;28;20128;-84
2022/11/08 04:39:16;;;;;;;43.08;25.63;;;;;;;;;;5014840;28;20052;-85
2022/11/08 04:41:42;;;;;;;41.00;25.08;;;;;;;;;;5013501;28;20026;-84
2022/11/08 04:44:09;;;;;;;41.30;25.40;;;;;;;;;;5014759;28;20490;-85
2022/11/08 04:46:35;;;;;;;46.08;28.13;;;;;;;;;;5014677;28;20034;-84
2022/11/08 04:49:01;;;;;;;46.20;28.95;;;;;;;;;;5014356;28;20112;-85
2022/11/08 04:51:28;;;;;;;50.35;29.33;;;;;;;;;;5014668;28;20021;-84
2022/11/08 04:53:56;;;;;;;71.50;39.70;;;;;;;;;;5014421;28;20018;-84
2022/11/08 04:56:23;;;;;;;53.47;33.35;;;;;;;;;;5013976;28;20063;-84
2022/11/08 04:58:53;;;;;;;55.08;33.97;;;;;;;;;;5014507;28;20438;-85
2022/11/08 05:01:20;;;;;;;78.93;44.55;;;;;;;;;;5014282;28;20030;-84
2022/11/08 05:03:47;;;;;;;63.75;37.92;;;;;;;;;;5014401;28;20076;-84
2022/11/08 05:06:14;;;;;;;56.05;33.10;;;;;;;;;;5013878;28;20065;-84
2022/11/08 05:08:40;;;;;;;58.72;36.70;;;;;;;;;;5013825;28;20064;-84
2022/11/08 05:11:07;;;;;;;58.10;37.03;;;;;;;;;;5014494;28;20160;-84
2022/11/08 05:13:34;;;;;;;51.70;34.05;;;;;;;;;;5014159;28;20113;-84
2022/11/08 05:16:04;;;;;;;58.17;36.53;;;;;;;;;;5013517;28;20030;-84
2022/11/08 05:18:31;;;;;;;58.08;34.22;;;;;;;;;;5013929;28;20030;-83
2022/11/08 05:23:43;;;;;;;60.17;34.67;;;;;;;;;;5014978;28;20114;-83
2022/11/08 05:26:10;;;;;;;52.20;32.13;;;;;;;;;;5013768;28;20065;-84
2022/11/08 05:28:39;;;;;;;53.08;30.80;;;;;;;;;;5015341;28;20022;-84
2022/11/08 05:31:05;;;;;;;54.85;30.83;;;;;;;;;;5013768;28;20018;-84
2022/11/08 05:33:31;;;;;;;48.75;28.50;;;;;;;;;;5014320;28;20511;-85
2022/11/08 05:36:00;;;;;;;45.33;29.10;;;;;;;;;;5013684;28;20419;-84
2022/11/08 05:38:26;;;;;;;53.60;31.67;;;;;;;;;;5013454;28;20026;-83
2022/11/08 05:40:52;;;;;;;54.28;31.17;;;;;;;;;;5013658;28;20032;-84
2022/11/08 05:43:18;;;;;;;54.97;32.60;;;;;;;;;;5013705;28;20041;-84
2022/11/08 05:45:45;;;;;;;54.65;33.00;;;;;;;;;;5023687;28;20071;-84
2022/11/08 05:48:11;;;;;;;54.03;33.40;;;;;;;;;;5033613;28;20021;-83
2022/11/08 05:50:37;;;;;;;55.63;35.00;;;;;;;;;;5036168;28;20129;-83
2022/11/08 05:53:03;;;;;;;59.58;33.67;;;;;;;;;;5037333;28;20025;-84
2022/11/08 05:55:30;;;;;;;52.05;31.73;;;;;;;;;;5034767;28;20028;-82
2022/11/08 05:57:56;;;;;;;50.40;29.48;;;;;;;;;;5032795;28;20031;-86
2022/11/08 06:00:22;;;;;;;50.83;29.65;;;;;;;;;;5032801;28;20034;-84
2022/11/08 06:02:48;;;;;;;55.92;30.52;;;;;;;;;;5032832;28;20041;-85
2022/11/08 06:05:14;;;;;;;43.88;29.00;;;;;;;;;;5032354;28;20081;-84
2022/11/08 06:07:40;;;;;;;49.33;29.30;;;;;;;;;;5032952;28;20060;-84
2022/11/08 06:10:07;;;;;;;55.40;30.75;;;;;;;;;;5032751;28;20038;-85
2022/11/08 06:12:33;;;;;;;55.05;32.97;;;;;;;;;;5032109;28;20021;-85
2022/11/08 06:14:59;;;;;;;57.10;33.35;;;;;;;;;;5025732;28;20033;-84
2022/11/08 06:17:25;;;;;;;55.83;33.08;;;;;;;;;;5012946;28;20030;-85
2022/11/08 06:19:51;;;;;;;47.17;29.55;;;;;;;;;;5011697;28;20026;-85
2022/11/08 06:22:17;;;;;;;41.72;26.98;;;;;;;;;;5013018;28;20468;-84
2022/11/08 06:24:43;;;;;;;50.40;31.05;;;;;;;;;;5013118;28;20539;-84
2022/11/08 06:27:09;;;;;;;48.58;29.58;;;;;;;;;;5012739;28;20030;-83
2022/11/08 06:29:35;;;;;;;48.72;30.45;;;;;;;;;;5014118;28;20056;-83
2022/11/08 06:32:01;;;;;;;46.28;26.80;;;;;;;;;;5012931;28;20487;-83
2022/11/08 06:34:27;;;;;;;45.75;28.88;;;;;;;;;;5013803;28;20022;-84
2022/11/08 06:36:55;;;;;;;50.15;31.10;;;;;;;;;;5012925;28;20113;-84
2022/11/08 06:39:21;;;;;;;47.75;31.45;;;;;;;;;;5012920;28;20030;-84
2022/11/08 06:41:47;;;;;;;51.92;32.22;;;;;;;;;;5012587;28;20032;-83
2022/11/08 06:44:13;;;;;;;51.45;31.67;;;;;;;;;;5013322;28;20052;-84
2022/11/08 06:46:39;;;;;;;55.22;32.40;;;;;;;;;;5012776;28;20491;-83
2022/11/08 06:49:05;;;;;;;53.08;33.08;;;;;;;;;;5012886;28;20379;-83
2022/11/08 06:51:32;;;;;;;57.20;32.88;;;;;;;;;;5012798;28;20026;-83
2022/11/08 06:53:59;;;;;;;52.15;33.65;;;;;;;;;;5012369;28;20087;-83
2022/11/08 06:56:25;;;;;;;51.03;30.80;;;;;;;;;;5012626;28;20036;-84
2022/11/08 06:58:51;;;;;;;50.17;30.23;;;;;;;;;;5012586;28;20026;-84
2022/11/08 07:01:17;;;;;;;52.70;33.05;;;;;;;;;;5013456;28;20028;-83
2022/11/08 07:03:43;;;;;;;53.20;34.60;;;;;;;;;;5012336;28;20033;-84
2022/11/08 07:06:40;;;;;;;59.42;33.97;;;;;;;;;;5012322;28;20054;-83
2022/11/08 07:09:06;;;;;;;46.20;28.50;;;;;;;;;;5013446;28;20109;-83
2022/11/08 07:11:33;;;;;;;50.20;31.58;;;;;;;;;;5012676;28;20121;-84
2022/11/08 07:13:59;;;;;;;53.97;31.27;;;;;;;;;;5012361;28;20072;-84
2022/11/08 07:16:25;;;;;;;48.10;30.33;;;;;;;;;;5012409;28;20030;-84
2022/11/08 07:18:51;;;;;;;45.88;28.20;;;;;;;;;;5012544;28;20030;-84
2022/11/08 07:21:17;;;;;;;41.40;27.92;;;;;;;;;;5012373;28;20087;-83
2022/11/08 07:23:43;;;;;;;41.60;27.33;;;;;;;;;;5012127;28;20050;-84
2022/11/08 07:26:11;;;;;;;42.80;26.33;;;;;;;;;;5015791;28;20018;-82
2022/11/08 07:28:37;;;;;;;47.88;28.55;;;;;;;;;;5015536;28;20025;-83
2022/11/08 07:31:04;;;;;;;46.63;28.70;;;;;;;;;;5015681;28;20519;-84
2022/11/08 07:33:30;;;;;;;42.08;24.27;;;;;;;;;;5015785;28;20045;-83
2022/11/08 07:35:57;;;;;;;45.45;29.30;;;;;;;;;;5015287;28;20088;-83
2022/11/08 07:38:24;;;;;;;58.20;36.10;;;;;;;;;;5015703;28;20057;-84
2022/11/08 07:40:51;;;;;;;49.03;32.88;;;;;;;;;;5015479;28;20025;-84
2022/11/08 07:43:17;;;;;;;48.80;29.75;;;;;;;;;;5015322;28;20025;-84
2022/11/08 07:45:43;;;;;;;41.60;27.17;;;;;;;;;;5016721;28;20026;-84
2022/11/08 07:48:10;;;;;;;46.33;28.50;;;;;;;;;;5015353;28;20022;-85
2022/11/08 07:50:36;;;;;;;52.53;30.83;;;;;;;;;;5015220;28;20042;-83
2022/11/08 07:53:03;;;;;;;48.90;27.20;;;;;;;;;;5015721;28;20022;-84
2022/11/08 07:55:29;;;;;;;50.97;27.90;;;;;;;;;;5015500;28;20475;-85
2022/11/08 07:58:10;;;;;;;44.45;28.00;;;;;;;;;;5015105;28;20034;-86
2022/11/08 08:00:37;;;;;;;53.83;29.08;;;;;;;;;;5015238;28;20117;-85
2022/11/08 08:03:04;;;;;;;48.95;30.95;;;;;;;;;;5015538;28;20037;-85
2022/11/08 08:05:33;;;;;;;51.55;33.00;;;;;;;;;;5015033;28;20072;-88
2022/11/08 08:08:00;;;;;;;57.28;32.42;;;;;;;;;;5015614;28;20471;-85
2022/11/08 08:10:28;;;;;;;49.35;28.98;;;;;;;;;;5015381;28;20022;-82
2022/11/08 08:12:54;;;;;;;57.95;36.95;;;;;;;;;;5016411;28;20037;-80
2022/11/08 08:15:20;;;;;;;56.95;33.25;;;;;;;;;;5016355;28;20022;-85
2022/11/08 08:17:46;;;;;;;55.35;33.53;;;;;;;;;;5014708;28;20072;-83
2022/11/08 08:20:13;;;;;;;53.45;31.77;;;;;;;;;;5014952;28;20041;-84
2022/11/08 08:22:43;;;;;;;57.28;30.80;;;;;;;;;;5014952;28;20398;-85
2022/11/08 08:25:09;;;;;;;50.70;33.60;;;;;;;;;;5014710;28;20018;-83
2022/11/08 08:27:35;;;;;;;55.67;31.75;;;;;;;;;;5014923;28;20030;-86
2022/11/08 08:30:01;;;;;;;58.05;36.67;;;;;;;;;;5016083;28;20149;-84
2022/11/08 08:32:27;;;;;;;60.70;34.45;;;;;;;;;;5014370;28;20025;-84
2022/11/08 08:34:53;;;;;;;56.45;34.45;;;;;;;;;;5014216;28;20149;-86
2022/11/08 08:37:19;;;;;;;80.70;47.72;;;;;;;;;;5024799;28;20034;-85
2022/11/08 08:39:45;;;;;;;121.75;76.45;;;;;;;;;;5034310;28;20028;-83
2022/11/08 08:42:12;;;;;;;79.03;49.22;;;;;;;;;;5033305;28;20081;-83
2022/11/08 08:44:38;;;;;;;77.07;46.92;;;;;;;;;;5034354;28;20408;-82
2022/11/08 08:47:04;;;;;;;67.97;40.83;;;;;;;;;;5034061;28;20033;-84
2022/11/08 08:49:30;;;;;;;80.72;48.35;;;;;;;;;;5034382;28;20023;-85
2022/11/08 08:51:56;;;;;;;71.35;40.67;;;;;;;;;;5034719;28;20028;-86
2022/11/08 08:54:22;;;;;;;78.50;44.17;;;;;;;;;;5034491;28;20533;-84
2022/11/08 08:56:48;;;;;;;72.18;44.42;;;;;;;;;;5034735;28;20052;-86
2022/11/08 08:59:14;;;;;;;81.95;47.17;;;;;;;;;;5036280;28;20047;-84
2022/11/08 09:01:40;;;;;;;73.60;44.47;;;;;;;;;;5041187;28;20021;-85
2022/11/08 09:04:06;;;;;;;67.55;40.65;;;;;;;;;;5041187;28;20101;-84
2022/11/08 09:06:32;;;;;;;71.03;41.67;;;;;;;;;;5036137;28;20491;-86
2022/11/08 09:08:58;;;;;;;64.78;37.35;;;;;;;;;;5035065;28;20022;-85
2022/11/08 09:11:25;;;;;;;65.47;36.97;;;;;;;;;;5034305;28;20022;-82
2022/11/08 09:13:51;;;;;;;73.28;42.25;;;;;;;;;;5033895;28;20049;-89
2022/11/08 09:16:17;;;;;;;78.22;44.75;;;;;;;;;;5033941;28;20060;-87
2022/11/08 09:18:43;;;;;;;66.72;39.60;;;;;;;;;;5036714;28;20513;-87
2022/11/08 09:21:09;;;;;;;68.68;39.10;;;;;;;;;;5033079;28;20025;-87
2022/11/08 09:23:37;;;;;;;60.90;35.50;;;;;;;;;;5034008;28;20467;-88
2022/11/08 09:26:05;;;;;;;68.00;37.50;;;;;;;;;;5034038;28;20044;-86
2022/11/08 09:31:33;;;;;;;65.47;37.75;;;;;;;;;;5034386;28;20029;-88
2022/11/08 09:34:02;;;;;;;61.30;34.75;;;;;;;;;;5031405;28;20052;-88
2022/11/08 09:36:28;;;;;;;61.25;36.53;;;;;;;;;;5033384;28;20026;-91
2022/11/08 09:38:54;;;;;;;64.50;36.35;;;;;;;;;;5034153;28;20029;-88
2022/11/08 09:41:35;;;;;;;54.17;31.65;;;;;;;;;;5033671;28;20053;-88
2022/11/08 09:44:14;;;;;;;59.78;35.08;;;;;;;;;;5030877;28;20471;-86
2022/11/08 09:46:53;;;;;;;52.97;30.65;;;;;;;;;;5033045;28;20029;-86
2022/11/08 09:49:21;;;;;;;46.40;27.90;;;;;;;;;;5032933;28;20021;-88
2022/11/08 09:51:48;;;;;;;50.53;30.80;;;;;;;;;;5033988;28;20021;-85
2022/11/08 09:54:19;;;;;;;57.80;34.88;;;;;;;;;;5033700;28;20080;-87
2022/11/08 09:56:45;;;;;;;56.80;33.90;;;;;;;;;;5033058;28;20079;-90
2022/11/08 09:59:17;;;;;;;61.40;35.33;;;;;;;;;;5033688;28;20521;-88
2022/11/08 10:01:43;;;;;;;55.70;32.35;;;;;;;;;;5033614;28;20030;-85
2022/11/08 10:04:17;;;;;;;58.97;33.45;;;;;;;;;;5033144;28;20075;-87
2022/11/08 10:06:46;;;;;;;48.78;31.40;;;;;;;;;;5033052;28;20053;-86
2022/11/08 10:09:21;;;;;;;51.72;32.40;;;;;;;;;;5033396;28;20079;-85
2022/11/08 10:11:56;;;;;;;52.20;32.50;;;;;;;;;;5032675;28;20025;-85
2022/11/08 10:14:28;;;;;;;54.60;32.38;;;;;;;;;;5033169;28;20114;-85
2022/11/08 10:16:57;;;;;;;52.65;26.95;;;;;;;;;;5032927;28;20029;-86
2022/11/08 10:19:35;;;;;;;45.33;26.90;;;;;;;;;;5033043;28;20037;-88
2022/11/08 10:22:22;;;;;;;47.75;28.50;;;;;;;;;;5033541;28;20022;-86
2022/11/08 10:24:57;;;;;;;43.97;27.58;;;;;;;;;;5032650;28;20037;-86
2022/11/08 10:27:43;;;;;;;51.78;29.73;;;;;;;;;;5034348;28;20037;-87
2022/11/08 10:30:17;;;;;;;48.55;27.40;;;;;;;;;;5033350;28;20045;-84
2022/11/08 10:32:43;;;;;;;44.22;24.67;;;;;;;;;;5032635;28;20113;-85
2022/11/08 10:35:12;;;;;;;42.83;25.40;;;;;;;;;;5033216;28;20022;-85
2022/11/08 10:37:43;;;;;;;62.30;32.17;;;;;;;;;;5032649;28;20029;-85
2022/11/08 10:40:18;;;;;;;52.80;30.63;;;;;;;;;;5032901;28;20025;-84
2022/11/08 10:43:03;;;;;;;57.95;33.90;;;;;;;;;;5033015;28;20022;-86
2022/11/08 10:45:29;;;;;;;53.78;34.65;;;;;;;;;;5032563;28;20030;-86
2022/11/08 10:47:55;;;;;;;48.00;31.13;;;;;;;;;;5034035;28;20037;-84
2022/11/08 10:50:31;;;;;;;43.13;28.58;;;;;;;;;;5032785;28;20033;-85
2022/11/08 10:53:01;;;;;;;39.95;25.48;;;;;;;;;;5032740;28;20033;-84
2022/11/08 10:55:27;;;;;;;53.63;32.55;;;;;;;;;;5032876;28;20026;-86
2022/11/08 10:57:53;;;;;;;46.55;29.45;;;;;;;;;;5033027;28;20033;-84
2022/11/08 11:00:19;;;;;;;46.63;28.63;;;;;;;;;;5036321;28;20022;-86
2022/11/08 11:02:53;;;;;;;41.15;26.85;;;;;;;;;;5036866;28;20108;-86
2022/11/08 11:05:20;;;;;;;42.55;26.92;;;;;;;;;;5036436;28;20064;-86
2022/11/08 11:07:53;;;;;;;53.20;28.85;;;;;;;;;;5036320;28;20029;-86
2022/11/08 11:10:24;;;;;;;39.17;24.52;;;;;;;;;;5036640;28;20025;-85
2022/11/08 11:12:58;;;;;;;39.13;24.40;;;;;;;;;;5038280;28;20464;-85
2022/11/08 11:15:30;;;;;;;42.58;27.15;;;;;;;;;;5038600;28;20029;-86
2022/11/08 11:17:56;;;;;;;40.88;25.13;;;;;;;;;;5037557;28;20029;-84
2022/11/08 11:20:23;;;;;;;39.90;24.40;;;;;;;;;;5036191;28;20124;-86
2022/11/08 11:22:50;;;;;;;50.55;33.92;;;;;;;;;;5036691;28;20021;-86
2022/11/08 11:25:37;;;;;;;50.47;32.05;;;;;;;;;;5037493;28;20076;-88
2022/11/08 11:31:20;;;;;;;47.67;29.63;;;;;;;;;;5019994;28;20072;-84
2022/11/08 11:33:46;;;;;;;46.58;29.40;;;;;;;;;;5035982;28;20147;-86
2022/11/08 11:36:15;;;;;;;41.75;25.85;;;;;;;;;;5034505;28;20110;-88
2022/11/08 11:39:00;;;;;;;44.42;27.77;;;;;;;;;;5036068;28;20025;-87
2022/11/08 11:41:29;;;;;;;55.38;34.38;;;;;;;;;;5034435;28;20036;-86
2022/11/08 11:44:06;;;;;;;45.33;28.58;;;;;;;;;;5033340;28;20117;-87
2022/11/08 11:46:38;;;;;;;40.28;25.33;;;;;;;;;;5031632;28;20487;-87
2022/11/08 11:49:06;;;;;;;43.03;28.30;;;;;;;;;;5014375;28;20064;-88
2022/11/08 11:51:32;;;;;;;40.58;27.00;;;;;;;;;;5016022;28;20195;-84
2022/11/08 11:54:07;;;;;;;43.53;27.90;;;;;;;;;;5016469;28;20030;-85
2022/11/08 11:56:36;;;;;;;44.40;29.33;;;;;;;;;;5015624;28;20029;-84
2022/11/08 11:59:11;;;;;;;47.95;28.35;;;;;;;;;;5016068;28;20216;-85
2022/11/08 12:01:56;;;;;;;43.75;26.63;;;;;;;;;;5015834;28;20022;-86
2022/11/08 12:04:41;;;;;;;38.03;26.17;;;;;;;;;;5015986;28;20076;-86
2022/11/08 12:07:10;;;;;;;40.50;26.65;;;;;;;;;;5015484;28;20165;-88
2022/11/08 12:09:50;;;;;;;40.55;25.27;;;;;;;;;;5018635;28;20034;-83
2022/11/08 12:12:31;;;;;;;41.45;26.50;;;;;;;;;;5020218;28;20096;-83
2022/11/08 12:15:11;;;;;;;45.38;30.50;;;;;;;;;;5054216;28;20044;-85
2022/11/08 12:17:46;;;;;;;45.25;28.55;;;;;;;;;;5058879;28;20036;-86
2022/11/08 12:20:33;;;;;;;40.05;24.00;;;;;;;;;;5058601;28;20028;-84
2022/11/08 12:23:02;;;;;;;42.08;24.02;;;;;;;;;;5045308;28;20124;-83
2022/11/08 12:25:35;;;;;;;41.25;24.65;;;;;;;;;;5040237;28;20075;-86
2022/11/08 12:28:13;;;;;;;38.58;27.23;;;;;;;;;;5040375;28;20360;-85
2022/11/08 12:30:58;;;;;;;38.75;24.58;;;;;;;;;;5037519;28;20033;-86
2022/11/08 12:33:24;;;;;;;37.50;22.98;;;;;;;;;;5035302;28;20035;-85
2022/11/08 12:35:57;;;;;;;39.90;25.40;;;;;;;;;;5035476;28;20017;-85
2022/11/08 12:38:36;;;;;;;46.08;28.88;;;;;;;;;;5034441;28;20399;-86
2022/11/08 12:41:05;;;;;;;49.00;33.65;;;;;;;;;;5034535;28;20013;-83
2022/11/08 12:43:37;;;;;;;48.63;30.85;;;;;;;;;;5034310;28;20017;-83
2022/11/08 12:46:11;;;;;;;78.25;56.90;;;;;;;;;;5020664;28;20127;-83
2022/11/08 12:48:40;;;;;;;51.85;39.55;;;;;;;;;;5014000;28;20033;-83
2022/11/08 12:51:13;;;;;;;36.13;24.48;;;;;;;;;;5012905;28;20028;-83
2022/11/08 12:53:47;;;;;;;39.33;24.73;;;;;;;;;;5014408;28;20435;-83
2022/11/08 12:56:15;;;;;;;41.30;25.40;;;;;;;;;;5014117;28;20029;-83
2022/11/08 12:58:42;;;;;;;33.15;22.20;;;;;;;;;;5013819;28;20061;-83
2022/11/08 13:01:12;;;;;;;48.10;28.35;;;;;;;;;;5013967;28;20028;-84
2022/11/08 13:03:50;;;;;;;55.30;38.10;;;;;;;;;;5014025;28;20022;-81
2022/11/08 13:06:17;;;;;;;76.80;53.15;;;;;;;;;;5013393;28;20046;-82
2022/11/08 13:08:43;;;;;;;48.83;32.08;;;;;;;;;;5013804;28;20022;-83
2022/11/08 13:11:12;;;;;;;43.83;29.10;;;;;;;;;;5014081;28;20041;-85
2022/11/08 13:13:47;;;;;;;45.78;28.30;;;;;;;;;;5014026;28;20033;-83
2022/11/08 13:16:14;;;;;;;40.95;28.40;;;;;;;;;;5013758;28;20030;-82
2022/11/08 13:18:51;;;;;;;42.50;29.25;;;;;;;;;;5013483;28;20472;-84
2022/11/08 13:21:29;;;;;;;44.15;29.45;;;;;;;;;;5013624;28;20026;-82
2022/11/08 13:24:01;;;;;;;45.40;27.65;;;;;;;;;;5013856;28;20026;-83
2022/11/08 13:26:31;;;;;;;53.05;36.03;;;;;;;;;;5013684;28;20029;-82
2022/11/08 13:29:15;;;;;;;46.20;29.98;;;;;;;;;;5013525;28;20025;-83
2022/11/08 13:31:45;;;;;;;41.88;26.67;;;;;;;;;;5013412;28;20029;-83
2022/11/08 13:34:11;;;;;;;43.72;27.88;;;;;;;;;;5012701;28;20084;-81
2022/11/08 13:36:49;;;;;;;47.72;32.63;;;;;;;;;;5013649;28;20029;-82
2022/11/08 13:39:24;;;;;;;43.13;30.13;;;;;;;;;;5013576;28;20034;-84
2022/11/08 13:42:09;;;;;;;47.33;32.15;;;;;;;;;;5013371;28;20472;-81
2022/11/08 13:45:07;;;;;;;41.08;25.35;;;;;;;;;;5013133;28;20021;-80
2022/11/08 13:47:35;;;;;;;43.58;27.30;;;;;;;;;;4980707;28;20430;-84
2022/11/08 13:50:21;;;;;;;41.38;31.45;;;;;;;;;;5013386;28;20073;-81
2022/11/08 13:53:01;;;;;;;37.58;25.75;;;;;;;;;;5003038;28;20034;-80
2022/11/08 13:55:43;;;;;;;38.08;27.42;;;;;;;;;;5012888;28;20374;-83
2022/11/08 13:58:28;;;;;;;42.60;29.85;;;;;;;;;;5012910;28;20037;-83
2022/11/08 14:00:54;;;;;;;43.40;28.77;;;;;;;;;;5012651;28;20030;-82
2022/11/08 14:03:32;;;;;;;39.70;28.27;;;;;;;;;;5013125;28;20072;-81
2022/11/08 14:06:18;;;;;;;45.78;33.30;;;;;;;;;;5024292;28;20103;-81
2022/11/08 14:09:00;;;;;;;43.10;31.05;;;;;;;;;;5015690;28;20033;-82
2022/11/08 14:11:51;;;;;;;48.42;33.88;;;;;;;;;;5016188;28;20474;-81
2022/11/08 14:14:20;;;;;;;58.95;38.63;;;;;;;;;;4980718;28;20030;-81
2022/11/08 14:16:57;;;;;;;62.55;38.10;;;;;;;;;;5015801;28;20025;-82
2022/11/08 14:19:24;;;;;;;60.72;39.20;;;;;;;;;;5016035;28;20025;-82
2022/11/08 14:21:51;;;;;;;68.90;45.00;;;;;;;;;;5015673;28;20022;-81
2022/11/08 14:24:20;;;;;;;70.28;44.53;;;;;;;;;;5016055;28;20080;-82
2022/11/08 14:26:46;;;;;;;65.65;42.20;;;;;;;;;;5015822;28;20030;-82
2022/11/08 14:29:20;;;;;;;55.83;40.50;;;;;;;;;;5022841;28;20017;-81
2022/11/08 14:31:47;;;;;;;54.15;36.75;;;;;;;;;;5034701;28;20044;-80
2022/11/08 14:34:26;;;;;;;57.25;37.55;;;;;;;;;;5055307;28;20099;-82
2022/11/08 14:36:55;;;;;;;62.25;41.17;;;;;;;;;;5037017;28;20025;-79
2022/11/08 14:39:25;;;;;;;62.20;45.92;;;;;;;;;;5056742;28;20025;-80
2022/11/08 14:41:52;;;;;;;69.15;48.83;;;;;;;;;;5056148;28;20017;-83
2022/11/08 14:44:19;;;;;;;75.05;54.28;;;;;;;;;;5038656;28;20023;-83
2022/11/08 14:46:45;;;;;;;64.80;46.22;;;;;;;;;;5039002;28;20063;-82
2022/11/08 14:49:14;;;;;;;65.25;43.50;;;;;;;;;;5039252;28;20048;-79
2022/11/08 14:51:41;;;;;;;64.07;43.33;;;;;;;;;;5038582;28;20490;-81
2022/11/08 14:54:20;;;;;;;74.78;49.13;;;;;;;;;;5039845;28;20025;-89
2022/11/08 14:56:47;;;;;;;74.10;49.50;;;;;;;;;;5039643;28;20043;-87